Startpagina
METAR-TAF:

METAR-TAF

Vliegvelden :

Santa Ana del Yacuma, Bolivia

breedte: 13-46S, lengte: 065-26W, hoogte: 144 m

Actueel weer

Dit bericht is 7 uur en het 58 minuten geleden gemaakt, om 23:00 UTC
Weinig wind
Temperatuur 28°C
Vochtigheid 79%
Druk 1010 hPa
Zicht: 8000 m
Weinig wolken op 2000 ft
Gebroken wolken op 20000 ft

METAR: SLSA 152300Z 00000KT 8000 FEW020 BKN200 28/24 Q1010

Tijdstip: 02:58 (06:58 UTC)


TAF: ontbreekt

Waarnemingen en weersverwachtingen van meer dan 4000 vliegvelden (METAR en TAF).

De beschikbare stations zijn de gele en rode punten op de kaart.

Ga met uw muis naar het station om de naam te zien.

Klik dan om waarnemingen en weersverwachtingen te zien.

kaart wijzigen: klik op de groene knoppen met een zwart kruis om in te zoomen, op de groene knop met een streepje om uit te zoomen of op de groene pijlen voor aangrenzende kaarten.


METAR-TAF: